sensor_id;sensor_type;location;lat;lon;timestamp;pressure;altitude;pressure_sealevel;temperature;humidity
788;BME280;16074;42.708;23.312;2023-04-25T00:00:26;141033.03;;;11.28;100.00
788;BME280;16074;42.708;23.312;2023-04-25T00:02:55;141051.09;;;11.35;100.00
788;BME280;16074;42.708;23.312;2023-04-25T00:05:24;141007.75;;;11.17;100.00
788;BME280;16074;42.708;23.312;2023-04-25T00:07:54;141022.22;;;11.23;100.00
788;BME280;16074;42.708;23.312;2023-04-25T00:10:23;141040.28;;;11.31;100.00
788;BME280;16074;42.708;23.312;2023-04-25T00:12:51;141028.22;;;11.26;100.00
788;BME280;16074;42.708;23.312;2023-04-25T00:15:19;141019.81;;;11.22;100.00
788;BME280;16074;42.708;23.312;2023-04-25T00:17:48;141024.63;;;11.24;100.00
788;BME280;16074;42.708;23.312;2023-04-25T00:20:16;141004.13;;;11.16;100.00
788;BME280;16074;42.708;23.312;2023-04-25T00:22:45;141007.75;;;11.17;100.00
788;BME280;16074;42.708;23.312;2023-04-25T00:25:14;141015.00;;;11.20;100.00
788;BME280;16074;42.708;23.312;2023-04-25T00:27:43;141039.09;;;11.30;100.00
788;BME280;16074;42.708;23.312;2023-04-25T00:30:13;141023.41;;;11.24;100.00
788;BME280;16074;42.708;23.312;2023-04-25T00:32:41;141029.44;;;11.26;100.00
788;BME280;16074;42.708;23.312;2023-04-25T00:35:09;141051.09;;;11.35;100.00
788;BME280;16074;42.708;23.312;2023-04-25T00:37:38;141036.69;;;11.29;100.00
788;BME280;16074;42.708;23.312;2023-04-25T00:40:07;141029.44;;;11.26;100.00
788;BME280;16074;42.708;23.312;2023-04-25T00:42:37;141033.03;;;11.28;100.00
788;BME280;16074;42.708;23.312;2023-04-25T00:45:06;141039.09;;;11.30;100.00
788;BME280;16074;42.708;23.312;2023-04-25T00:47:35;141039.09;;;11.30;100.00
788;BME280;16074;42.708;23.312;2023-04-25T00:50:05;141052.34;;;11.36;100.00
788;BME280;16074;42.708;23.312;2023-04-25T00:52:34;141046.28;;;11.33;100.00
788;BME280;16074;42.708;23.312;2023-04-25T00:55:03;141076.44;;;11.46;100.00
788;BME280;16074;42.708;23.312;2023-04-25T00:57:31;141060.75;;;11.39;100.00
788;BME280;16074;42.708;23.312;2023-04-25T01:00:02;141084.84;;;11.49;100.00
788;BME280;16074;42.708;23.312;2023-04-25T01:02:32;141094.50;;;11.53;100.00
788;BME280;16074;42.708;23.312;2023-04-25T01:05:01;141086.09;;;11.50;100.00
788;BME280;16074;42.708;23.312;2023-04-25T01:07:30;141074.03;;;11.45;100.00
788;BME280;16074;42.708;23.312;2023-04-25T01:09:59;141063.16;;;11.40;100.00
788;BME280;16074;42.708;23.312;2023-04-25T01:12:27;141069.22;;;11.43;100.00
788;BME280;16074;42.708;23.312;2023-04-25T01:14:55;141060.75;;;11.39;100.00
788;BME280;16074;42.708;23.312;2023-04-25T01:17:25;141055.94;;;11.37;100.00
788;BME280;16074;42.708;23.312;2023-04-25T01:19:54;141057.16;;;11.38;100.00
788;BME280;16074;42.708;23.312;2023-04-25T01:22:24;141061.97;;;11.40;100.00
788;BME280;16074;42.708;23.312;2023-04-25T01:24:53;141047.50;;;11.34;100.00
788;BME280;16074;42.708;23.312;2023-04-25T01:27:22;141035.47;;;11.29;100.00
788;BME280;16074;42.708;23.312;2023-04-25T01:29:51;141035.47;;;11.29;100.00
788;BME280;16074;42.708;23.312;2023-04-25T01:32:19;141025.81;;;11.25;100.00
788;BME280;16074;42.708;23.312;2023-04-25T01:34:48;141022.22;;;11.23;100.00
788;BME280;16074;42.708;23.312;2023-04-25T01:37:16;141018.59;;;11.22;100.00
788;BME280;16074;42.708;23.312;2023-04-25T01:39:46;141007.75;;;11.17;100.00
788;BME280;16074;42.708;23.312;2023-04-25T01:42:15;140957.16;;;10.96;100.00
788;BME280;16074;42.708;23.312;2023-04-25T01:44:43;140934.28;;;10.87;100.00
788;BME280;16074;42.708;23.312;2023-04-25T01:47:12;140948.75;;;10.93;100.00
788;BME280;16074;42.708;23.312;2023-04-25T01:49:40;140948.75;;;10.93;100.00
788;BME280;16074;42.708;23.312;2023-04-25T01:52:08;140965.59;;;11.00;100.00
788;BME280;16074;42.708;23.312;2023-04-25T01:54:37;140959.56;;;10.97;100.00
788;BME280;16074;42.708;23.312;2023-04-25T01:57:06;140961.97;;;10.98;100.00
788;BME280;16074;42.708;23.312;2023-04-25T01:59:36;140969.19;;;11.01;100.00
788;BME280;16074;42.708;23.312;2023-04-25T02:02:12;140925.81;;;10.83;100.00
788;BME280;16074;42.708;23.312;2023-04-25T02:04:42;140928.22;;;10.84;100.00
788;BME280;16074;42.708;23.312;2023-04-25T02:07:12;140924.66;;;10.83;100.00
788;BME280;16074;42.708;23.312;2023-04-25T02:09:48;140924.66;;;10.83;100.00
788;BME280;16074;42.708;23.312;2023-04-25T02:12:20;140905.38;;;10.75;100.00
788;BME280;16074;42.708;23.312;2023-04-25T02:15:09;140902.97;;;10.74;100.00
788;BME280;16074;42.708;23.312;2023-04-25T02:17:47;140884.91;;;10.67;100.00
788;BME280;16074;42.708;23.312;2023-04-25T02:20:16;140870.47;;;10.61;100.00
788;BME280;16074;42.708;23.312;2023-04-25T02:22:44;140890.91;;;10.69;100.00
788;BME280;16074;42.708;23.312;2023-04-25T02:25:12;140901.78;;;10.73;100.00
788;BME280;16074;42.708;23.312;2023-04-25T02:27:42;140915.00;;;10.79;100.00
788;BME280;16074;42.708;23.312;2023-04-25T02:30:11;140919.81;;;10.81;100.00
788;BME280;16074;42.708;23.312;2023-04-25T02:32:40;140917.41;;;10.80;100.00
788;BME280;16074;42.708;23.312;2023-04-25T02:35:09;140913.78;;;10.78;100.00
788;BME280;16074;42.708;23.312;2023-04-25T02:37:38;140924.66;;;10.83;100.00
788;BME280;16074;42.708;23.312;2023-04-25T02:40:08;140928.22;;;10.84;100.00
788;BME280;16074;42.708;23.312;2023-04-25T02:42:36;140899.38;;;10.72;100.00
788;BME280;16074;42.708;23.312;2023-04-25T02:45:07;140916.19;;;10.79;100.00
788;BME280;16074;42.708;23.312;2023-04-25T02:47:36;140902.97;;;10.74;100.00
788;BME280;16074;42.708;23.312;2023-04-25T02:50:05;140886.09;;;10.67;100.00
788;BME280;16074;42.708;23.312;2023-04-25T02:52:34;140900.53;;;10.73;100.00
788;BME280;16074;42.708;23.312;2023-04-25T02:55:10;140900.53;;;10.73;100.00
788;BME280;16074;42.708;23.312;2023-04-25T02:57:39;140895.72;;;10.71;100.00
788;BME280;16074;42.708;23.312;2023-04-25T03:00:12;140880.09;;;10.65;100.00
788;BME280;16074;42.708;23.312;2023-04-25T03:02:42;140892.13;;;10.69;100.00
788;BME280;16074;42.708;23.312;2023-04-25T03:05:10;140868.03;;;10.60;100.00
788;BME280;16074;42.708;23.312;2023-04-25T03:07:38;140877.69;;;10.64;100.00
788;BME280;16074;42.708;23.312;2023-04-25T03:10:09;140870.47;;;10.61;100.00
788;BME280;16074;42.708;23.312;2023-04-25T03:12:38;140875.28;;;10.63;100.00
788;BME280;16074;42.708;23.312;2023-04-25T03:15:07;140875.28;;;10.63;100.00
788;BME280;16074;42.708;23.312;2023-04-25T03:17:37;140827.09;;;10.43;100.00
788;BME280;16074;42.708;23.312;2023-04-25T03:20:06;140819.88;;;10.40;100.00
788;BME280;16074;42.708;23.312;2023-04-25T03:22:36;140827.09;;;10.43;100.00
788;BME280;16074;42.708;23.312;2023-04-25T03:25:05;140852.38;;;10.53;100.00
788;BME280;16074;42.708;23.312;2023-04-25T03:27:34;140823.50;;;10.41;100.00
788;BME280;16074;42.708;23.312;2023-04-25T03:30:03;140854.78;;;10.54;100.00
788;BME280;16074;42.708;23.312;2023-04-25T03:32:31;140858.41;;;10.56;100.00
788;BME280;16074;42.708;23.312;2023-04-25T03:35:01;140849.94;;;10.52;100.00
788;BME280;16074;42.708;23.312;2023-04-25T03:37:31;140840.31;;;10.48;100.00
788;BME280;16074;42.708;23.312;2023-04-25T03:39:59;140845.13;;;10.50;100.00
788;BME280;16074;42.708;23.312;2023-04-25T03:42:45;140812.63;;;10.37;100.00
788;BME280;16074;42.708;23.312;2023-04-25T03:45:14;140836.72;;;10.47;100.00
788;BME280;16074;42.708;23.312;2023-04-25T03:47:42;140821.09;;;10.40;100.00
788;BME280;16074;42.708;23.312;2023-04-25T03:50:12;140851.19;;;10.53;100.00
788;BME280;16074;42.708;23.312;2023-04-25T03:52:41;140862.00;;;10.57;100.00
788;BME280;16074;42.708;23.312;2023-04-25T03:55:09;140876.44;;;10.63;100.00
788;BME280;16074;42.708;23.312;2023-04-25T03:57:38;140893.31;;;10.70;100.00
788;BME280;16074;42.708;23.312;2023-04-25T04:00:07;140913.78;;;10.78;100.00
788;BME280;16074;42.708;23.312;2023-04-25T04:02:39;140933.06;;;10.86;100.00
788;BME280;16074;42.708;23.312;2023-04-25T04:05:12;140957.16;;;10.96;100.00
788;BME280;16074;42.708;23.312;2023-04-25T04:07:47;140960.78;;;10.98;100.00
788;BME280;16074;42.708;23.312;2023-04-25T04:10:17;140995.72;;;11.12;100.00
788;BME280;16074;42.708;23.312;2023-04-25T04:12:45;140995.72;;;11.12;100.00
788;BME280;16074;42.708;23.312;2023-04-25T04:15:13;141019.81;;;11.22;100.00
788;BME280;16074;42.708;23.312;2023-04-25T04:17:43;141019.81;;;11.22;100.00
788;BME280;16074;42.708;23.312;2023-04-25T04:20:15;141048.69;;;11.34;100.00
788;BME280;16074;42.708;23.312;2023-04-25T04:22:43;141055.94;;;11.37;100.00
788;BME280;16074;42.708;23.312;2023-04-25T04:25:13;141039.09;;;11.30;100.00
788;BME280;16074;42.708;23.312;2023-04-25T04:28:02;141053.50;;;11.36;100.00
788;BME280;16074;42.708;23.312;2023-04-25T04:31:01;141028.22;;;11.26;100.00
788;BME280;16074;42.708;23.312;2023-04-25T04:33:29;141015.00;;;11.20;100.00
788;BME280;16074;42.708;23.312;2023-04-25T04:36:03;141031.88;;;11.27;100.00
788;BME280;16074;42.708;23.312;2023-04-25T04:38:34;141043.91;;;11.32;100.00
788;BME280;16074;42.708;23.312;2023-04-25T04:41:05;141070.41;;;11.43;100.00
788;BME280;16074;42.708;23.312;2023-04-25T04:43:54;141070.41;;;11.43;100.00
788;BME280;16074;42.708;23.312;2023-04-25T04:46:49;141076.44;;;11.46;100.00
788;BME280;16074;42.708;23.312;2023-04-25T04:49:52;141028.22;;;11.26;100.00
788;BME280;16074;42.708;23.312;2023-04-25T04:52:31;141078.84;;;11.47;100.00
788;BME280;16074;42.708;23.312;2023-04-25T04:55:22;141072.81;;;11.44;100.00
788;BME280;16074;42.708;23.312;2023-04-25T04:58:03;141083.69;;;11.49;100.00
788;BME280;16074;42.708;23.312;2023-04-25T05:00:51;141106.59;;;11.58;100.00
788;BME280;16074;42.708;23.312;2023-04-25T05:03:43;141117.44;;;11.63;100.00
788;BME280;16074;42.708;23.312;2023-04-25T05:06:32;141083.69;;;11.49;100.00
788;BME280;16074;42.708;23.312;2023-04-25T05:09:29;141092.09;;;11.52;100.00
788;BME280;16074;42.708;23.312;2023-04-25T05:12:15;141083.69;;;11.49;100.00
788;BME280;16074;42.708;23.312;2023-04-25T05:15:03;141055.94;;;11.37;100.00
788;BME280;16074;42.708;23.312;2023-04-25T05:18:09;141059.56;;;11.39;100.00
788;BME280;16074;42.708;23.312;2023-04-25T05:20:45;141088.50;;;11.51;100.00
788;BME280;16074;42.708;23.312;2023-04-25T05:23:25;141101.78;;;11.56;100.00
788;BME280;16074;42.708;23.312;2023-04-25T05:26:10;141096.97;;;11.54;100.00
788;BME280;16074;42.708;23.312;2023-04-25T05:28:52;141116.25;;;11.62;100.00
788;BME280;16074;42.708;23.312;2023-04-25T05:31:22;141129.50;;;11.68;100.00
788;BME280;16074;42.708;23.312;2023-04-25T05:33:57;141123.47;;;11.65;100.00
788;BME280;16074;42.708;23.312;2023-04-25T05:36:36;141115.03;;;11.62;100.00
788;BME280;16074;42.708;23.312;2023-04-25T05:39:05;141143.97;;;11.74;100.00
788;BME280;16074;42.708;23.312;2023-04-25T05:42:07;141145.19;;;11.74;100.00
788;BME280;16074;42.708;23.312;2023-04-25T05:44:54;141166.91;;;11.83;100.00
788;BME280;16074;42.708;23.312;2023-04-25T05:47:29;141194.59;;;11.94;100.00
788;BME280;16074;42.708;23.312;2023-04-25T05:50:06;141198.19;;;11.96;100.00
788;BME280;16074;42.708;23.312;2023-04-25T05:53:02;141203.03;;;11.98;100.00
788;BME280;16074;42.708;23.312;2023-04-25T05:55:38;141213.91;;;12.02;100.00
788;BME280;16074;42.708;23.312;2023-04-25T05:58:25;141217.50;;;12.04;100.00
788;BME280;16074;42.708;23.312;2023-04-25T06:00:54;141223.56;;;12.06;100.00
788;BME280;16074;42.708;23.312;2023-04-25T06:03:22;141216.31;;;12.03;100.00
788;BME280;16074;42.708;23.312;2023-04-25T06:05:51;141195.78;;;11.95;100.00
788;BME280;16074;42.708;23.312;2023-04-25T06:08:20;141238.03;;;12.12;100.00
788;BME280;16074;42.708;23.312;2023-04-25T06:10:48;141253.69;;;12.19;100.00
788;BME280;16074;42.708;23.312;2023-04-25T06:13:16;141266.94;;;12.24;100.00
788;BME280;16074;42.708;23.312;2023-04-25T06:15:46;141276.59;;;12.28;100.00
788;BME280;16074;42.708;23.312;2023-04-25T06:18:14;141265.75;;;12.24;100.00
788;BME280;16074;42.708;23.312;2023-04-25T06:20:43;141231.97;;;12.10;100.00
788;BME280;16074;42.708;23.312;2023-04-25T06:23:11;141234.38;;;12.11;100.00
788;BME280;16074;42.708;23.312;2023-04-25T06:25:47;141221.16;;;12.05;100.00
788;BME280;16074;42.708;23.312;2023-04-25T06:28:16;141235.63;;;12.11;100.00
788;BME280;16074;42.708;23.312;2023-04-25T06:30:45;141244.03;;;12.15;100.00
788;BME280;16074;42.708;23.312;2023-04-25T06:33:17;141259.69;;;12.21;100.00
788;BME280;16074;42.708;23.312;2023-04-25T06:35:46;141281.41;;;12.30;100.00
788;BME280;16074;42.708;23.312;2023-04-25T06:38:17;141295.88;;;12.36;100.00
788;BME280;16074;42.708;23.312;2023-04-25T06:40:49;141330.84;;;12.51;100.00
788;BME280;16074;42.708;23.312;2023-04-25T06:43:18;141394.78;;;12.77;100.00
788;BME280;16074;42.708;23.312;2023-04-25T06:45:51;141460.03;;;13.04;100.00
788;BME280;16074;42.708;23.312;2023-04-25T06:48:21;141493.84;;;13.18;100.00
788;BME280;16074;42.708;23.312;2023-04-25T06:50:51;141556.59;;;13.44;100.00
788;BME280;16074;42.708;23.312;2023-04-25T06:53:19;141603.66;;;13.63;100.00
788;BME280;16074;42.708;23.312;2023-04-25T06:55:53;141633.88;;;13.76;100.00
788;BME280;16074;42.708;23.312;2023-04-25T06:58:23;141667.66;;;13.90;100.00
788;BME280;16074;42.708;23.312;2023-04-25T07:00:55;141680.97;;;13.95;100.00
788;BME280;16074;42.708;23.312;2023-04-25T07:03:25;141695.47;;;14.01;100.00
788;BME280;16074;42.708;23.312;2023-04-25T07:06:00;141693.06;;;14.00;100.00
788;BME280;16074;42.708;23.312;2023-04-25T07:08:29;141703.91;;;14.05;100.00
788;BME280;16074;42.708;23.312;2023-04-25T07:10:58;141723.25;;;14.13;100.00
788;BME280;16074;42.708;23.312;2023-04-25T07:13:27;141746.25;;;14.22;100.00
788;BME280;16074;42.708;23.312;2023-04-25T07:15:57;141763.16;;;14.29;100.00
788;BME280;16074;42.708;23.312;2023-04-25T07:18:27;141768.00;;;14.31;100.00
788;BME280;16074;42.708;23.312;2023-04-25T07:20:55;141761.97;;;14.29;100.00
788;BME280;16074;42.708;23.312;2023-04-25T07:23:24;141769.22;;;14.32;100.00
788;BME280;16074;42.708;23.312;2023-04-25T07:25:53;141775.25;;;14.34;100.00
788;BME280;16074;42.708;23.312;2023-04-25T07:28:23;141793.41;;;14.41;100.00
788;BME280;16074;42.708;23.312;2023-04-25T07:30:52;141811.50;;;14.49;100.00
788;BME280;16074;42.708;23.312;2023-04-25T07:33:21;141861.06;;;14.69;100.00
788;BME280;16074;42.708;23.312;2023-04-25T07:35:50;141858.63;;;14.68;100.00
788;BME280;16074;42.708;23.312;2023-04-25T07:38:18;141914.25;;;14.91;100.00
788;BME280;16074;42.708;23.312;2023-04-25T07:40:47;141965.00;;;15.12;100.00
788;BME280;16074;42.708;23.312;2023-04-25T07:43:16;141984.38;;;15.20;100.00
788;BME280;16074;42.708;23.312;2023-04-25T07:45:52;142008.59;;;15.30;100.00
788;BME280;16074;42.708;23.312;2023-04-25T07:48:22;142052.16;;;15.48;100.00
788;BME280;16074;42.708;23.312;2023-04-25T07:50:52;142083.56;;;15.61;100.00
788;BME280;16074;42.708;23.312;2023-04-25T07:53:21;142119.88;;;15.76;100.00
788;BME280;16074;42.708;23.312;2023-04-25T07:55:57;142106.59;;;15.70;100.00
788;BME280;16074;42.708;23.312;2023-04-25T07:58:28;142128.38;;;15.79;100.00
788;BME280;16074;42.708;23.312;2023-04-25T08:00:59;142095.69;;;15.66;100.00
788;BME280;16074;42.708;23.312;2023-04-25T08:03:55;142145.28;;;15.86;100.00
788;BME280;16074;42.708;23.312;2023-04-25T08:06:37;142210.66;;;16.13;100.00
788;BME280;16074;42.708;23.312;2023-04-25T08:09:11;142231.19;;;16.22;100.00
788;BME280;16074;42.708;23.312;2023-04-25T08:11:41;142244.53;;;16.27;100.00
788;BME280;16074;42.708;23.312;2023-04-25T08:14:13;142307.50;;;16.53;100.00
788;BME280;16074;42.708;23.312;2023-04-25T08:16:44;142388.66;;;16.86;100.00
788;BME280;16074;42.708;23.312;2023-04-25T08:19:14;142471.03;;;17.20;100.00
788;BME280;16074;42.708;23.312;2023-04-25T08:21:42;142604.38;;;17.75;100.00
788;BME280;16074;42.708;23.312;2023-04-25T08:24:15;142691.63;;;18.11;94.09
788;BME280;16074;42.708;23.312;2023-04-25T08:26:43;142732.91;;;18.28;91.03
788;BME280;16074;42.708;23.312;2023-04-25T08:29:15;142712.22;;;18.19;86.83
788;BME280;16074;42.708;23.312;2023-04-25T08:31:44;142702.53;;;18.15;98.45
788;BME280;16074;42.708;23.312;2023-04-25T08:34:14;142621.34;;;17.82;100.00
788;BME280;16074;42.708;23.312;2023-04-25T08:36:47;142454.06;;;17.13;100.00
788;BME280;16074;42.708;23.312;2023-04-25T08:39:23;142336.59;;;16.65;100.00
788;BME280;16074;42.708;23.312;2023-04-25T08:42:27;142294.22;;;16.48;100.00
788;BME280;16074;42.708;23.312;2023-04-25T08:44:58;142090.84;;;15.64;100.00
788;BME280;16074;42.708;23.312;2023-04-25T08:47:37;142065.44;;;15.53;100.00
788;BME280;16074;42.708;23.312;2023-04-25T08:50:08;142027.97;;;15.38;100.00
788;BME280;16074;42.708;23.312;2023-04-25T08:52:41;142036.41;;;15.42;100.00
788;BME280;16074;42.708;23.312;2023-04-25T08:55:12;142061.84;;;15.52;100.00
788;BME280;16074;42.708;23.312;2023-04-25T08:57:42;142151.34;;;15.89;100.00
788;BME280;16074;42.708;23.312;2023-04-25T09:00:11;142220.34;;;16.17;100.00
788;BME280;16074;42.708;23.312;2023-04-25T09:02:43;142248.16;;;16.29;100.00
788;BME280;16074;42.708;23.312;2023-04-25T09:05:14;142329.31;;;16.62;100.00
788;BME280;16074;42.708;23.312;2023-04-25T09:07:43;142404.41;;;16.93;100.00
788;BME280;16074;42.708;23.312;2023-04-25T09:10:15;142490.38;;;17.28;100.00
788;BME280;16074;42.708;23.312;2023-04-25T09:12:43;142546.19;;;17.51;100.00
788;BME280;16074;42.708;23.312;2023-04-25T09:15:13;142629.81;;;17.86;100.00
788;BME280;16074;42.708;23.312;2023-04-25T09:17:57;142764.47;;;18.41;100.00
788;BME280;16074;42.708;23.312;2023-04-25T09:20:41;142914.81;;;19.03;100.00
788;BME280;16074;42.708;23.312;2023-04-25T09:23:28;143060.53;;;19.62;100.00
788;BME280;16074;42.708;23.312;2023-04-25T09:25:56;143144.31;;;19.97;94.51
788;BME280;16074;42.708;23.312;2023-04-25T09:28:26;143195.38;;;20.18;91.42
788;BME280;16074;42.708;23.312;2023-04-25T09:30:59;143246.41;;;20.39;91.78
788;BME280;16074;42.708;23.312;2023-04-25T09:33:42;143236.69;;;20.35;83.06
788;BME280;16074;42.708;23.312;2023-04-25T09:36:12;143324.13;;;20.70;75.91
788;BME280;16074;42.708;23.312;2023-04-25T09:39:12;143310.78;;;20.65;76.97
788;BME280;16074;42.708;23.312;2023-04-25T09:41:53;143363.09;;;20.86;75.35
788;BME280;16074;42.708;23.312;2023-04-25T09:44:23;143400.75;;;21.02;70.11
788;BME280;16074;42.708;23.312;2023-04-25T09:46:53;143504.09;;;21.44;73.72
788;BME280;16074;42.708;23.312;2023-04-25T09:49:25;143543.00;;;21.60;63.97
788;BME280;16074;42.708;23.312;2023-04-25T09:52:05;143568.59;;;21.71;67.18
788;BME280;16074;42.708;23.312;2023-04-25T09:54:42;143437.22;;;21.17;62.41
788;BME280;16074;42.708;23.312;2023-04-25T09:57:18;143392.22;;;20.98;64.17
788;BME280;16074;42.708;23.312;2023-04-25T09:59:49;143398.31;;;21.01;68.13
788;BME280;16074;42.708;23.312;2023-04-25T10:02:20;143432.38;;;21.15;66.52
788;BME280;16074;42.708;23.312;2023-04-25T10:04:52;143484.63;;;21.36;66.29
788;BME280;16074;42.708;23.312;2023-04-25T10:07:31;143612.34;;;21.88;66.19
788;BME280;16074;42.708;23.312;2023-04-25T10:10:00;143579.50;;;21.75;63.25
788;BME280;16074;42.708;23.312;2023-04-25T10:12:30;143573.44;;;21.73;60.91
788;BME280;16074;42.708;23.312;2023-04-25T10:15:01;143631.81;;;21.96;64.01
788;BME280;16074;42.708;23.312;2023-04-25T10:17:31;143642.78;;;22.01;59.83
788;BME280;16074;42.708;23.312;2023-04-25T10:20:01;143554.00;;;21.65;60.01
788;BME280;16074;42.708;23.312;2023-04-25T10:22:34;143376.44;;;20.92;56.56
788;BME280;16074;42.708;23.312;2023-04-25T10:25:04;143290.09;;;20.56;55.99
788;BME280;16074;42.708;23.312;2023-04-25T10:27:35;143233.00;;;20.33;51.74
788;BME280;16074;42.708;23.312;2023-04-25T10:30:05;143213.56;;;20.25;54.03
788;BME280;16074;42.708;23.312;2023-04-25T10:32:37;143287.69;;;20.55;56.44
788;BME280;16074;42.708;23.312;2023-04-25T10:35:13;143214.81;;;20.26;55.36
788;BME280;16074;42.708;23.312;2023-04-25T10:37:59;143059.31;;;19.62;55.82
788;BME280;16074;42.708;23.312;2023-04-25T10:40:29;142869.94;;;18.84;59.76
788;BME280;16074;42.708;23.312;2023-04-25T10:46:00;142714.66;;;18.20;69.74
788;BME280;16074;42.708;23.312;2023-04-25T10:48:29;142799.63;;;18.55;70.26
788;BME280;16074;42.708;23.312;2023-04-25T10:51:07;142965.84;;;19.23;70.13
788;BME280;16074;42.708;23.312;2023-04-25T10:53:37;143158.91;;;20.03;62.27
788;BME280;16074;42.708;23.312;2023-04-25T10:56:10;143318.03;;;20.68;59.33
788;BME280;16074;42.708;23.312;2023-04-25T10:58:44;143389.78;;;20.97;57.03
788;BME280;16074;42.708;23.312;2023-04-25T11:01:15;143608.72;;;21.87;53.94
788;BME280;16074;42.708;23.312;2023-04-25T11:03:47;143715.75;;;22.31;50.43
788;BME280;16074;42.708;23.312;2023-04-25T11:06:23;143802.22;;;22.66;46.83
788;BME280;16074;42.708;23.312;2023-04-25T11:08:53;143874.03;;;22.95;45.45
788;BME280;16074;42.708;23.312;2023-04-25T11:11:21;144050.63;;;23.68;44.34
788;BME280;16074;42.708;23.312;2023-04-25T11:13:49;144144.50;;;24.06;41.71
788;BME280;16074;42.708;23.312;2023-04-25T11:16:18;144262.78;;;24.54;41.51
788;BME280;16074;42.708;23.312;2023-04-25T11:18:57;144144.50;;;24.06;45.70
788;BME280;16074;42.708;23.312;2023-04-25T11:21:25;144203.00;;;24.30;45.87
788;BME280;16074;42.708;23.312;2023-04-25T11:23:57;144223.72;;;24.38;46.80
788;BME280;16074;42.708;23.312;2023-04-25T11:26:25;144064.06;;;23.73;45.15
788;BME280;16074;42.708;23.312;2023-04-25T11:28:57;143993.41;;;23.44;45.11
788;BME280;16074;42.708;23.312;2023-04-25T11:31:27;143852.09;;;22.87;46.88
788;BME280;16074;42.708;23.312;2023-04-25T11:33:57;143741.34;;;22.41;48.04
788;BME280;16074;42.708;23.312;2023-04-25T11:36:26;143612.34;;;21.88;46.93
788;BME280;16074;42.708;23.312;2023-04-25T11:38:54;143473.66;;;21.32;55.69
788;BME280;16074;42.708;23.312;2023-04-25T11:41:25;143106.66;;;19.81;55.17
788;BME280;16074;42.708;23.312;2023-04-25T11:43:53;142378.97;;;16.82;62.47
788;BME280;16074;42.708;23.312;2023-04-25T11:46:22;142175.56;;;15.99;66.83
788;BME280;16074;42.708;23.312;2023-04-25T11:48:51;142127.16;;;15.79;68.73
788;BME280;16074;42.708;23.312;2023-04-25T11:51:19;142075.13;;;15.57;72.20
788;BME280;16074;42.708;23.312;2023-04-25T11:53:48;141992.84;;;15.24;78.36
788;BME280;16074;42.708;23.312;2023-04-25T11:56:17;141998.88;;;15.26;75.11
788;BME280;16074;42.708;23.312;2023-04-25T11:58:57;142129.56;;;15.80;76.24
788;BME280;16074;42.708;23.312;2023-04-25T12:01:29;142371.69;;;16.79;67.38
788;BME280;16074;42.708;23.312;2023-04-25T12:04:10;142540.16;;;17.49;63.08
788;BME280;16074;42.708;23.312;2023-04-25T12:06:40;142528.03;;;17.44;62.00
788;BME280;16074;42.708;23.312;2023-04-25T12:09:11;142545.00;;;17.51;59.45
788;BME280;16074;42.708;23.312;2023-04-25T12:11:44;142650.41;;;17.94;59.37
788;BME280;16074;42.708;23.312;2023-04-25T12:14:20;142564.34;;;17.59;57.74
788;BME280;16074;42.708;23.312;2023-04-25T12:16:50;142372.91;;;16.80;59.71
788;BME280;16074;42.708;23.312;2023-04-25T12:19:20;142378.97;;;16.82;57.59
788;BME280;16074;42.708;23.312;2023-04-25T12:21:49;142417.72;;;16.98;58.65
788;BME280;16074;42.708;23.312;2023-04-25T12:24:26;142332.97;;;16.64;58.11
788;BME280;16074;42.708;23.312;2023-04-25T12:26:59;142382.63;;;16.84;60.02
788;BME280;16074;42.708;23.312;2023-04-25T12:29:31;142110.19;;;15.72;72.52
788;BME280;16074;42.708;23.312;2023-04-25T12:32:14;142066.69;;;15.54;100.00
788;BME280;16074;42.708;23.312;2023-04-25T12:34:42;141923.94;;;14.95;100.00
788;BME280;16074;42.708;23.312;2023-04-25T12:37:10;141797.00;;;14.43;100.00
788;BME280;16074;42.708;23.312;2023-04-25T12:39:39;141766.81;;;14.31;100.00
788;BME280;16074;42.708;23.312;2023-04-25T12:42:07;141670.09;;;13.91;100.00
788;BME280;16074;42.708;23.312;2023-04-25T12:44:40;141604.91;;;13.64;100.00
788;BME280;16074;42.708;23.312;2023-04-25T12:47:09;141610.91;;;13.66;100.00
788;BME280;16074;42.708;23.312;2023-04-25T12:49:37;141592.81;;;13.59;100.00
788;BME280;16074;42.708;23.312;2023-04-25T12:52:06;141484.19;;;13.14;100.00
788;BME280;16074;42.708;23.312;2023-04-25T12:54:34;141394.78;;;12.77;100.00
788;BME280;16074;42.708;23.312;2023-04-25T12:57:02;141411.69;;;12.84;100.00
788;BME280;16074;42.708;23.312;2023-04-25T12:59:30;141365.88;;;12.65;100.00
788;BME280;16074;42.708;23.312;2023-04-25T13:02:00;141347.75;;;12.58;100.00
788;BME280;16074;42.708;23.312;2023-04-25T13:04:28;141327.25;;;12.49;100.00
788;BME280;16074;42.708;23.312;2023-04-25T13:06:57;141298.31;;;12.37;100.00
788;BME280;16074;42.708;23.312;2023-04-25T13:09:25;141300.72;;;12.38;100.00
788;BME280;16074;42.708;23.312;2023-04-25T13:11:54;141277.81;;;12.29;100.00
788;BME280;16074;42.708;23.312;2023-04-25T13:14:25;141257.28;;;12.20;100.00
788;BME280;16074;42.708;23.312;2023-04-25T13:16:53;141250.09;;;12.17;100.00
788;BME280;16074;42.708;23.312;2023-04-25T13:19:23;141246.44;;;12.16;100.00
788;BME280;16074;42.708;23.312;2023-04-25T13:21:52;141227.16;;;12.08;100.00